createdAt,value
2022-12-11T00:04:22.594Z,99527.59
2022-12-11T00:09:27.024Z,99528.06
2022-12-11T00:14:31.840Z,99523.66
2022-12-11T00:19:34.620Z,99535.31
2022-12-11T00:24:37.642Z,99529.78
2022-12-11T00:29:41.775Z,99526.22
2022-12-11T00:34:44.748Z,99530.63
2022-12-11T00:39:47.495Z,99532.63
2022-12-11T00:44:52.130Z,99538.38
2022-12-11T00:49:54.984Z,99536.16
2022-12-11T00:54:57.838Z,99543.97
2022-12-11T01:00:02.442Z,99544.75
2022-12-11T01:05:05.906Z,99542.06
2022-12-11T01:10:27.322Z,99544.97
2022-12-11T01:15:36.401Z,99547.56
2022-12-11T01:20:43.478Z,99558.97
2022-12-11T01:25:46.365Z,99548.19
2022-12-11T01:30:50.659Z,99550.16
2022-12-11T01:35:53.470Z,99550.38
2022-12-11T01:40:56.244Z,99543.78
2022-12-11T01:46:00.423Z,99553.34
2022-12-11T01:51:06.774Z,99557.81
2022-12-11T01:56:11.071Z,99568.19
2022-12-11T02:01:21.759Z,99559.91
2022-12-11T02:06:33.522Z,99557.84
2022-12-11T02:11:46.734Z,99562.13
2022-12-11T02:16:57.063Z,99555.75
2022-12-11T02:22:02.449Z,99557.38
2022-12-11T02:27:17.522Z,99552.69
2022-12-11T02:32:27.117Z,99548.91
2022-12-11T02:37:33.778Z,99536.19
2022-12-11T02:42:43.421Z,99536.69
2022-12-11T02:47:50.004Z,99531.78
2022-12-11T02:52:56.812Z,99543.03
2022-12-11T02:58:06.185Z,99545.22
2022-12-11T03:03:10.429Z,99547.06
2022-12-11T03:08:18.687Z,99544.00
2022-12-11T03:13:23.780Z,99542.63
2022-12-11T03:18:35.581Z,99548.47
2022-12-11T03:23:45.868Z,99539.81
2022-12-11T03:28:56.909Z,99531.22
2022-12-11T03:34:04.578Z,99529.03
2022-12-11T03:39:11.810Z,99531.06
2022-12-11T03:44:15.480Z,99524.19
2022-12-11T03:49:23.465Z,99531.78
2022-12-11T03:54:27.081Z,99519.53
2022-12-11T03:59:29.891Z,99534.91
2022-12-11T04:04:34.070Z,99525.47
2022-12-11T04:09:37.421Z,99530.25
2022-12-11T04:14:57.623Z,99535.97
2022-12-11T04:20:33.583Z,99542.44
2022-12-11T04:25:36.457Z,99546.31
2022-12-11T04:30:39.239Z,99550.19
2022-12-11T04:35:43.370Z,99534.34
2022-12-11T04:40:46.175Z,99544.31
2022-12-11T04:45:49.139Z,99540.03
2022-12-11T04:50:53.224Z,99541.03
2022-12-11T04:55:56.397Z,99542.34
2022-12-11T05:00:59.176Z,99522.78
2022-12-11T05:06:03.292Z,99523.13
2022-12-11T05:11:08.808Z,99521.53
2022-12-11T05:16:14.766Z,99523.34
2022-12-11T05:21:18.999Z,99511.97
2022-12-11T05:26:22.136Z,99519.19
2022-12-11T05:31:27.079Z,99512.22
2022-12-11T05:36:33.103Z,99515.13
2022-12-11T05:41:36.067Z,99505.34
2022-12-11T05:46:38.994Z,99504.63
2022-12-11T05:51:43.758Z,99499.34
2022-12-11T05:56:46.608Z,99500.44
2022-12-11T06:01:49.450Z,99499.59
2022-12-11T06:06:54.944Z,99493.47
2022-12-11T06:11:57.744Z,99488.22
2022-12-11T06:17:01.481Z,99498.09
2022-12-11T06:22:05.923Z,99498.22
2022-12-11T06:27:09.108Z,99503.66
2022-12-11T06:32:11.796Z,99510.84
2022-12-11T06:37:15.938Z,99506.44
2022-12-11T06:42:18.789Z,99503.03
2022-12-11T06:47:21.540Z,99503.16
2022-12-11T06:52:27.357Z,99505.06
2022-12-11T06:57:30.093Z,99512.28
2022-12-11T07:02:33.039Z,99511.53
2022-12-11T07:07:37.244Z,99512.50
2022-12-11T07:12:40.306Z,99524.19
2022-12-11T07:17:43.164Z,99515.41
2022-12-11T07:22:47.281Z,99521.88
2022-12-11T07:27:49.992Z,99524.63
2022-12-11T07:32:52.773Z,99524.63
2022-12-11T07:37:57.815Z,99527.31
2022-12-11T07:43:00.530Z,99527.56
2022-12-11T07:48:03.261Z,99532.81
2022-12-11T07:53:07.670Z,99517.69
2022-12-11T07:58:10.443Z,99530.25
2022-12-11T08:03:13.463Z,99534.75
2022-12-11T08:08:18.063Z,99527.97
2022-12-11T08:13:20.912Z,99530.44
2022-12-11T08:18:23.791Z,99531.22
2022-12-11T08:23:27.915Z,99527.09
2022-12-11T08:28:30.868Z,99525.47
2022-12-11T08:33:33.648Z,99521.25
2022-12-11T08:38:38.014Z,99524.94
2022-12-11T08:43:41.436Z,99529.72
2022-12-11T08:48:44.677Z,99530.75
2022-12-11T08:53:49.260Z,99530.28
2022-12-11T08:58:53.549Z,99532.00
2022-12-11T09:03:57.902Z,99527.34
2022-12-11T09:09:02.968Z,99528.19
2022-12-11T09:14:07.905Z,99538.84
2022-12-11T09:19:14.347Z,99536.38
2022-12-11T09:24:18.548Z,99535.66
2022-12-11T09:29:21.506Z,99528.66
2022-12-11T09:34:29.184Z,99532.97
2022-12-11T09:39:33.784Z,99531.00
2022-12-11T09:44:43.196Z,99523.59
2022-12-11T09:49:47.381Z,99518.72
2022-12-11T09:54:54.673Z,99533.53
2022-12-11T10:00:11.259Z,99526.06
2022-12-11T10:05:21.931Z,99516.81
2022-12-11T10:10:38.254Z,99509.38
2022-12-11T10:15:45.603Z,99500.31
2022-12-11T10:20:49.991Z,99501.91
2022-12-11T10:25:59.455Z,99496.44
2022-12-11T10:31:11.951Z,99490.78
2022-12-11T10:36:21.639Z,99492.41
2022-12-11T10:41:37.848Z,99504.00
2022-12-11T10:46:41.013Z,99487.75
2022-12-11T10:51:43.958Z,99482.25
2022-12-11T10:56:50.005Z,99483.94
2022-12-11T11:01:53.045Z,99480.31
2022-12-11T11:07:03.297Z,99477.63
2022-12-11T11:12:20.138Z,99476.63
2022-12-11T11:17:22.990Z,99468.44
2022-12-11T11:22:27.605Z,99468.31
2022-12-11T11:27:38.165Z,99466.47
2022-12-11T11:32:42.422Z,99460.00
2022-12-11T11:37:47.838Z,99468.94
2022-12-11T11:43:01.812Z,99457.44
2022-12-11T11:48:14.581Z,99446.78
2022-12-11T11:53:24.246Z,99442.41
2022-12-11T11:58:38.314Z,99438.22
2022-12-11T12:03:41.240Z,99434.81
2022-12-11T12:08:55.504Z,99432.50
2022-12-11T12:14:35.826Z,99428.22
2022-12-11T12:19:53.074Z,99431.28
2022-12-11T12:25:07.082Z,99431.75
2022-12-11T12:30:20.387Z,99429.94
2022-12-11T12:35:35.828Z,99431.41
2022-12-11T12:40:52.007Z,99425.78
2022-12-11T12:46:10.552Z,99426.41
2022-12-11T12:51:15.905Z,99418.81
2022-12-11T12:56:19.271Z,99410.50
2022-12-11T13:01:25.997Z,99407.56
2022-12-11T13:06:31.595Z,99401.19
2022-12-11T13:11:35.626Z,99399.25
2022-12-11T13:16:41.848Z,99392.06
2022-12-11T13:21:55.646Z,99395.47
2022-12-11T13:27:10.143Z,99395.34
2022-12-11T13:32:25.583Z,99396.31
2022-12-11T13:37:33.079Z,99400.84
2022-12-11T13:42:49.153Z,99402.81
2022-12-11T13:47:53.340Z,99402.81
2022-12-11T13:52:57.585Z,99405.72
2022-12-11T13:58:01.174Z,99404.88
2022-12-11T14:03:08.228Z,99404.88
2022-12-11T14:08:13.077Z,99409.53
2022-12-11T14:13:22.983Z,99406.22
2022-12-11T14:18:30.788Z,99410.97
2022-12-11T14:23:35.086Z,99412.06
2022-12-11T14:28:39.924Z,99408.09
2022-12-11T14:33:46.924Z,99413.41
2022-12-11T14:38:55.132Z,99412.19
2022-12-11T14:44:01.085Z,99416.34
2022-12-11T14:49:13.052Z,99410.16
2022-12-11T14:54:28.734Z,99409.72
2022-12-11T14:59:34.488Z,99418.53
2022-12-11T15:04:38.591Z,99416.75
2022-12-11T15:09:42.486Z,99413.22
2022-12-11T15:14:50.980Z,99419.72
2022-12-11T15:19:57.961Z,99422.66
2022-12-11T15:25:01.446Z,99421.81
2022-12-11T15:30:15.752Z,99425.53
2022-12-11T15:35:25.726Z,99421.16
2022-12-11T15:40:29.123Z,99424.19
2022-12-11T15:45:33.025Z,99423.56
2022-12-11T15:50:37.400Z,99424.56
2022-12-11T15:55:40.458Z,99428.22
2022-12-11T16:00:43.888Z,99422.06
2022-12-11T16:05:49.878Z,99427.81
2022-12-11T16:10:54.531Z,99435.25
2022-12-11T16:15:58.348Z,99434.78
2022-12-11T16:21:05.846Z,99431.59
2022-12-11T16:26:10.093Z,99429.38
2022-12-11T16:31:13.718Z,99430.84
2022-12-11T16:36:20.711Z,99427.66
2022-12-11T16:41:25.088Z,99432.50
2022-12-11T16:46:28.063Z,99434.69
2022-12-11T16:51:32.731Z,99419.25
2022-12-11T16:56:35.623Z,99426.38
2022-12-11T17:01:38.528Z,99422.78
2022-12-11T17:06:43.018Z,99424.53
2022-12-11T17:11:45.748Z,99433.47
2022-12-11T17:16:49.030Z,99426.22
2022-12-11T17:21:54.102Z,99427.94
2022-12-11T17:26:56.895Z,99438.56
2022-12-11T17:31:59.884Z,99434.31
2022-12-11T17:37:04.135Z,99433.31
2022-12-11T17:42:07.152Z,99426.22
2022-12-11T17:47:11.957Z,99431.63
2022-12-11T17:52:16.312Z,99430.63
2022-12-11T17:57:19.137Z,99441.16
2022-12-11T18:02:22.696Z,99448.34
2022-12-11T18:07:26.835Z,99448.34
2022-12-11T18:12:30.898Z,99442.00
2022-12-11T18:17:34.347Z,99438.19
2022-12-11T18:22:38.659Z,99446.13
2022-12-11T18:27:41.457Z,99451.66
2022-12-11T18:32:45.793Z,99446.88
2022-12-11T18:37:49.933Z,99447.88
2022-12-11T18:42:52.729Z,99442.50
2022-12-11T18:47:56.671Z,99441.16
2022-12-11T18:53:03.818Z,99441.59
2022-12-11T18:58:06.650Z,99436.50
2022-12-11T19:03:10.501Z,99438.06
2022-12-11T19:08:16.380Z,99439.78
2022-12-11T19:13:19.314Z,99438.19
2022-12-11T19:18:22.196Z,99436.34
2022-12-11T19:23:26.428Z,99438.34
2022-12-11T19:28:29.227Z,99439.91
2022-12-11T19:33:32.822Z,99437.22
2022-12-11T19:38:37.352Z,99440.16
2022-12-11T19:43:40.340Z,99435.78
2022-12-11T19:48:43.654Z,99435.16
2022-12-11T19:53:48.309Z,99435.03
2022-12-11T19:58:51.112Z,99441.41
2022-12-11T20:03:54.821Z,99437.25
2022-12-11T20:08:59.092Z,99439.94
2022-12-11T20:14:01.928Z,99433.69
2022-12-11T20:19:05.099Z,99432.84
2022-12-11T20:24:10.088Z,99433.47
2022-12-11T20:29:13.886Z,99431.28
2022-12-11T20:34:16.797Z,99432.84
2022-12-11T20:39:21.002Z,99432.25
2022-12-11T20:44:23.820Z,99427.31
2022-12-11T20:49:26.666Z,99421.09
2022-12-11T20:54:30.929Z,99423.06
2022-12-11T20:59:33.840Z,99424.06
2022-12-11T21:04:39.546Z,99428.44
2022-12-11T21:09:44.136Z,99425.75
2022-12-11T21:14:46.988Z,99434.94
2022-12-11T21:19:50.462Z,99428.84
2022-12-11T21:24:54.709Z,99426.94
2022-12-11T21:29:57.458Z,99431.81
2022-12-11T21:35:00.160Z,99422.88
2022-12-11T21:40:05.376Z,99423.75
2022-12-11T21:46:00.279Z,99418.50
2022-12-11T21:50:31.447Z,99417.25
2022-12-11T21:55:35.788Z,99414.56
2022-12-11T22:00:40.107Z,99414.81
2022-12-11T22:05:42.898Z,99417.50
2022-12-11T22:10:47.056Z,99416.78
2022-12-11T22:15:50.585Z,99414.66
2022-12-11T22:20:53.687Z,99411.25
2022-12-11T22:25:58.048Z,99415.09
2022-12-11T22:31:01.393Z,99415.66
2022-12-11T22:36:04.385Z,99415.19
2022-12-11T22:41:16.286Z,99415.94
2022-12-11T22:46:24.109Z,99407.09
2022-12-11T22:51:27.101Z,99407.84
2022-12-11T22:56:31.387Z,99411.63
2022-12-11T23:01:34.417Z,99414.09
2022-12-11T23:06:37.231Z,99415.66
2022-12-11T23:11:41.564Z,99416.78
2022-12-11T23:16:44.888Z,99422.59
2022-12-11T23:21:48.124Z,99421.75
2022-12-11T23:26:52.248Z,99415.75
2022-12-11T23:31:55.084Z,99417.31
2022-12-11T23:36:57.888Z,99411.34
2022-12-11T23:42:02.017Z,99407.19
2022-12-11T23:47:04.885Z,99406.34
2022-12-11T23:52:08.477Z,99410.59
2022-12-11T23:57:12.558Z,99414.75
